Time;durP1;ratioP1;P1;durP2;ratioP2;P2;SDS_P1;SDS_P2;PMS_P1;PMS_P2;Temp;Humidity;BMP_temperature;BMP_pressure;BME280_temperature;BME280_humidity;BME280_pressure;Samples;Min_cycle;Max_cycle;Signal;HPM_P1;HPM_P2
2022/03/27 00:01:31;;;;;;;14.73;10.02;;;;;;;;;;5027787;28;20052;-77
2022/03/27 00:03:57;;;;;;;15.27;10.27;;;;;;;;;;5027541;28;20033;-78
2022/03/27 00:06:24;;;;;;;13.70;10.35;;;;;;;;;;5032522;28;20033;-77
2022/03/27 00:08:49;;;;;;;12.40;9.60;;;;;;;;;;5031265;28;20029;-77
2022/03/27 00:11:25;;;;;;;15.50;10.93;;;;;;;;;;5031071;28;20143;-77
2022/03/27 00:13:52;;;;;;;14.68;10.77;;;;;;;;;;5032938;28;20045;-76
2022/03/27 00:16:18;;;;;;;15.60;10.68;;;;;;;;;;5033699;28;20056;-75
2022/03/27 00:18:44;;;;;;;16.88;10.60;;;;;;;;;;5034215;28;20033;-76
2022/03/27 00:21:11;;;;;;;17.60;11.65;;;;;;;;;;5033607;28;20061;-74
2022/03/27 00:23:37;;;;;;;18.20;11.85;;;;;;;;;;5032859;28;20083;-76
2022/03/27 00:26:04;;;;;;;18.30;12.18;;;;;;;;;;5032881;28;20025;-77
2022/03/27 00:28:34;;;;;;;18.02;12.93;;;;;;;;;;5033096;28;20037;-77
2022/03/27 00:31:01;;;;;;;19.02;13.57;;;;;;;;;;5032769;28;20040;-78
2022/03/27 00:33:28;;;;;;;18.73;13.02;;;;;;;;;;5030336;28;20046;-75
2022/03/27 00:35:55;;;;;;;20.95;13.43;;;;;;;;;;5033174;28;20029;-76
2022/03/27 00:38:22;;;;;;;23.42;14.73;;;;;;;;;;5032851;28;20503;-77
2022/03/27 00:40:50;;;;;;;22.35;14.75;;;;;;;;;;5032055;28;20030;-76
2022/03/27 00:43:17;;;;;;;22.13;15.07;;;;;;;;;;5030532;28;20025;-76
2022/03/27 00:45:43;;;;;;;22.02;15.95;;;;;;;;;;5033663;28;20068;-77
2022/03/27 00:48:09;;;;;;;23.02;16.48;;;;;;;;;;5033906;28;20041;-77
2022/03/27 00:50:36;;;;;;;27.95;18.77;;;;;;;;;;5032973;28;20033;-79
2022/03/27 00:53:02;;;;;;;25.92;17.83;;;;;;;;;;5031683;28;20025;-77
2022/03/27 00:55:28;;;;;;;25.85;17.55;;;;;;;;;;5033129;28;20042;-77
2022/03/27 00:57:55;;;;;;;27.48;18.50;;;;;;;;;;5033012;28;20117;-78
2022/03/27 01:00:48;;;;;;;29.30;20.05;;;;;;;;;;5033014;28;20083;-77
2022/03/27 01:03:15;;;;;;;27.65;18.40;;;;;;;;;;5029314;28;20033;-76
2022/03/27 01:05:42;;;;;;;26.23;18.13;;;;;;;;;;5033347;28;20505;-77
2022/03/27 01:08:09;;;;;;;26.88;18.73;;;;;;;;;;5031513;28;20568;-77
2022/03/27 01:10:36;;;;;;;28.95;18.02;;;;;;;;;;5029829;28;20029;-77
2022/03/27 01:13:11;;;;;;;30.13;18.38;;;;;;;;;;5029341;28;20033;-77
2022/03/27 01:15:42;;;;;;;34.38;20.25;;;;;;;;;;5027409;28;20041;-77
2022/03/27 01:18:08;;;;;;;34.33;20.33;;;;;;;;;;5028177;28;20030;-76
2022/03/27 01:20:39;;;;;;;34.42;19.48;;;;;;;;;;5030627;28;20548;-76
2022/03/27 01:23:09;;;;;;;36.08;20.75;;;;;;;;;;5030424;28;20120;-77
2022/03/27 01:25:40;;;;;;;34.20;20.90;;;;;;;;;;5027162;28;20083;-76
2022/03/27 01:28:06;;;;;;;33.25;21.90;;;;;;;;;;5028066;28;20032;-76
2022/03/27 01:30:32;;;;;;;36.60;20.92;;;;;;;;;;5030040;28;20116;-77
2022/03/27 01:32:58;;;;;;;36.13;21.45;;;;;;;;;;5031137;28;20045;-77
2022/03/27 01:35:24;;;;;;;32.88;20.73;;;;;;;;;;5029867;28;20123;-76
2022/03/27 01:37:50;;;;;;;32.40;20.30;;;;;;;;;;5029027;28;20495;-75
2022/03/27 01:40:17;;;;;;;34.55;20.02;;;;;;;;;;5030359;28;20031;-77
2022/03/27 01:42:43;;;;;;;29.85;19.98;;;;;;;;;;5029788;28;20056;-77
2022/03/27 01:45:09;;;;;;;35.78;20.58;;;;;;;;;;5028839;28;20021;-77
2022/03/27 01:47:36;;;;;;;32.67;21.08;;;;;;;;;;5028884;28;20022;-78
2022/03/27 01:50:03;;;;;;;39.10;21.73;;;;;;;;;;5029272;28;20078;-76
2022/03/27 01:52:29;;;;;;;33.47;19.52;;;;;;;;;;5029651;28;20091;-76
2022/03/27 01:54:55;;;;;;;31.27;19.13;;;;;;;;;;5027470;28;20026;-77
2022/03/27 01:57:21;;;;;;;33.33;18.90;;;;;;;;;;5029999;28;20502;-78
2022/03/27 01:59:47;;;;;;;37.08;19.52;;;;;;;;;;5028346;28;20029;-76
2022/03/27 02:02:13;;;;;;;34.20;19.60;;;;;;;;;;5029451;28;20030;-77
2022/03/27 02:04:39;;;;;;;36.67;20.52;;;;;;;;;;5028269;28;20029;-77
2022/03/27 02:07:06;;;;;;;42.35;20.17;;;;;;;;;;5029852;28;20041;-77
2022/03/27 02:09:32;;;;;;;40.50;20.45;;;;;;;;;;5029476;28;20034;-77
2022/03/27 02:11:58;;;;;;;39.47;21.90;;;;;;;;;;5029122;28;20030;-78
2022/03/27 02:14:24;;;;;;;43.22;22.55;;;;;;;;;;5028640;28;20116;-76
2022/03/27 02:16:50;;;;;;;46.38;22.25;;;;;;;;;;5025921;28;20030;-76
2022/03/27 02:19:16;;;;;;;36.15;19.80;;;;;;;;;;5026190;28;20030;-77
2022/03/27 02:21:43;;;;;;;36.72;17.67;;;;;;;;;;5028459;28;20032;-77
2022/03/27 02:24:09;;;;;;;27.92;15.93;;;;;;;;;;5027004;28;20037;-77
2022/03/27 02:26:36;;;;;;;29.15;16.23;;;;;;;;;;5027747;28;20560;-77
2022/03/27 02:29:02;;;;;;;26.92;15.10;;;;;;;;;;5028728;28;20030;-77
2022/03/27 02:31:28;;;;;;;34.33;16.70;;;;;;;;;;5028939;28;20064;-77
2022/03/27 02:33:54;;;;;;;34.92;16.77;;;;;;;;;;5027255;28;20041;-75
2022/03/27 02:36:20;;;;;;;31.33;16.88;;;;;;;;;;5027743;28;20033;-75
2022/03/27 02:38:47;;;;;;;32.25;18.08;;;;;;;;;;5028914;28;20135;-76
2022/03/27 02:41:15;;;;;;;34.40;17.23;;;;;;;;;;5028741;28;20021;-76
2022/03/27 02:43:41;;;;;;;32.97;17.30;;;;;;;;;;5027161;28;20033;-76
2022/03/27 02:46:07;;;;;;;37.28;18.25;;;;;;;;;;5027806;28;20417;-76
2022/03/27 02:48:33;;;;;;;39.72;18.20;;;;;;;;;;5026613;28;20104;-75
2022/03/27 02:50:59;;;;;;;35.25;18.35;;;;;;;;;;5027252;28;20037;-75
2022/03/27 02:53:25;;;;;;;30.95;16.92;;;;;;;;;;5027175;28;20116;-76
2022/03/27 02:55:51;;;;;;;35.05;18.38;;;;;;;;;;5029345;28;20037;-76
2022/03/27 02:58:17;;;;;;;34.30;18.38;;;;;;;;;;5027740;28;20034;-76
2022/03/27 03:00:44;;;;;;;37.80;18.45;;;;;;;;;;5027664;28;20068;-77
2022/03/27 03:03:10;;;;;;;38.03;18.88;;;;;;;;;;5025879;28;20041;-77
2022/03/27 03:05:39;;;;;;;35.08;18.58;;;;;;;;;;5025703;28;20025;-77
2022/03/27 03:08:06;;;;;;;31.67;16.67;;;;;;;;;;5026029;28;20070;-76
2022/03/27 03:10:34;;;;;;;33.15;18.25;;;;;;;;;;5026160;28;20032;-76
2022/03/27 03:13:00;;;;;;;33.22;17.75;;;;;;;;;;5023958;28;20037;-77
2022/03/27 03:15:26;;;;;;;30.83;16.98;;;;;;;;;;5027212;28;20033;-77
2022/03/27 03:17:52;;;;;;;33.17;17.73;;;;;;;;;;5025974;28;20033;-76
2022/03/27 03:20:19;;;;;;;33.25;17.92;;;;;;;;;;5027018;28;20605;-77
2022/03/27 03:22:45;;;;;;;35.10;17.88;;;;;;;;;;5023865;28;20044;-75
2022/03/27 03:25:11;;;;;;;30.27;16.42;;;;;;;;;;5024574;28;20105;-76
2022/03/27 03:27:37;;;;;;;32.70;16.98;;;;;;;;;;5027809;28;20104;-77
2022/03/27 03:30:05;;;;;;;34.63;16.92;;;;;;;;;;5027981;28;20083;-76
2022/03/27 03:32:31;;;;;;;33.42;16.95;;;;;;;;;;5024802;28;20141;-76
2022/03/27 03:34:57;;;;;;;39.95;19.00;;;;;;;;;;5026659;28;20028;-77
2022/03/27 03:37:23;;;;;;;40.60;19.40;;;;;;;;;;5025177;28;20041;-76
2022/03/27 03:39:49;;;;;;;40.97;20.02;;;;;;;;;;5026951;28;20076;-77
2022/03/27 03:42:15;;;;;;;35.75;17.58;;;;;;;;;;5026509;28;20498;-76
2022/03/27 03:44:42;;;;;;;37.15;19.55;;;;;;;;;;5027117;28;20044;-77
2022/03/27 03:47:09;;;;;;;36.35;17.73;;;;;;;;;;5024516;28;20033;-77
2022/03/27 03:49:35;;;;;;;37.95;19.60;;;;;;;;;;5025654;28;20088;-76
2022/03/27 03:52:01;;;;;;;38.10;18.70;;;;;;;;;;5022609;28;20030;-76
2022/03/27 03:54:27;;;;;;;25.15;13.70;;;;;;;;;;5026660;28;20041;-77
2022/03/27 03:56:53;;;;;;;25.98;13.93;;;;;;;;;;5024944;28;20056;-77
2022/03/27 03:59:19;;;;;;;22.05;12.20;;;;;;;;;;5028040;28;20045;-76
2022/03/27 04:01:45;;;;;;;22.92;12.88;;;;;;;;;;5027836;28;20025;-77
2022/03/27 04:04:11;;;;;;;22.83;12.80;;;;;;;;;;5026595;28;20123;-74
2022/03/27 04:06:37;;;;;;;26.88;13.80;;;;;;;;;;5025278;28;20025;-76
2022/03/27 04:09:04;;;;;;;28.02;14.90;;;;;;;;;;5026037;28;20034;-77
2022/03/27 04:11:30;;;;;;;28.00;14.68;;;;;;;;;;5027860;28;20487;-76
2022/03/27 04:13:57;;;;;;;26.38;13.25;;;;;;;;;;5026202;28;20021;-76
2022/03/27 04:16:23;;;;;;;29.38;14.80;;;;;;;;;;5025973;28;20025;-77
2022/03/27 04:18:49;;;;;;;34.03;15.82;;;;;;;;;;5026525;28;20034;-77
2022/03/27 04:21:15;;;;;;;31.85;15.82;;;;;;;;;;5026587;28;20033;-78
2022/03/27 04:23:42;;;;;;;28.38;15.27;;;;;;;;;;5026590;28;20048;-78
2022/03/27 04:26:08;;;;;;;31.90;16.20;;;;;;;;;;5026456;28;20029;-77
2022/03/27 04:28:34;;;;;;;31.85;16.65;;;;;;;;;;5009033;28;20025;-77
2022/03/27 04:31:00;;;;;;;32.80;17.00;;;;;;;;;;5025402;28;20072;-75
2022/03/27 04:33:26;;;;;;;33.72;16.08;;;;;;;;;;5024742;28;20041;-77
2022/03/27 04:35:52;;;;;;;31.75;14.88;;;;;;;;;;5025706;28;20025;-78
2022/03/27 04:38:18;;;;;;;33.03;15.15;;;;;;;;;;5025654;28;20073;-75
2022/03/27 04:40:45;;;;;;;33.33;15.63;;;;;;;;;;5025370;28;20030;-77
2022/03/27 04:43:12;;;;;;;32.33;16.30;;;;;;;;;;5025539;28;20546;-77
2022/03/27 04:45:38;;;;;;;36.30;16.20;;;;;;;;;;5026496;28;20038;-78
2022/03/27 04:48:04;;;;;;;35.13;15.70;;;;;;;;;;5026413;28;20061;-77
2022/03/27 04:50:31;;;;;;;33.72;16.27;;;;;;;;;;5031267;28;20037;-77
2022/03/27 04:52:57;;;;;;;34.63;16.55;;;;;;;;;;5028208;28;20038;-78
2022/03/27 04:55:23;;;;;;;37.00;16.10;;;;;;;;;;5030883;28;20136;-77
2022/03/27 04:57:49;;;;;;;34.72;16.27;;;;;;;;;;5028973;28;20033;-77
2022/03/27 05:00:17;;;;;;;35.88;17.17;;;;;;;;;;5030828;28;21471;-78
2022/03/27 05:02:44;;;;;;;33.90;14.73;;;;;;;;;;5028083;28;20025;-77
2022/03/27 05:05:11;;;;;;;31.73;15.07;;;;;;;;;;5031210;28;20030;-78
2022/03/27 05:07:37;;;;;;;33.85;16.10;;;;;;;;;;5027411;28;20120;-78
2022/03/27 05:10:04;;;;;;;28.90;15.85;;;;;;;;;;5030157;28;20119;-77
2022/03/27 05:12:30;;;;;;;31.42;16.08;;;;;;;;;;5029274;28;20018;-76
2022/03/27 05:14:56;;;;;;;27.60;14.57;;;;;;;;;;5031193;28;20376;-77
2022/03/27 05:17:23;;;;;;;25.05;14.38;;;;;;;;;;5031345;28;20176;-78
2022/03/27 05:19:49;;;;;;;30.35;14.88;;;;;;;;;;5031502;28;20080;-77
2022/03/27 05:22:15;;;;;;;26.88;14.85;;;;;;;;;;5028636;28;20037;-76
2022/03/27 05:24:41;;;;;;;25.25;13.88;;;;;;;;;;5030274;28;20029;-78
2022/03/27 05:27:07;;;;;;;27.25;13.95;;;;;;;;;;5030211;28;20049;-77
2022/03/27 05:29:34;;;;;;;24.55;13.63;;;;;;;;;;5030377;28;20100;-76
2022/03/27 05:32:00;;;;;;;26.75;14.52;;;;;;;;;;5025722;28;20033;-77
2022/03/27 05:34:26;;;;;;;25.13;14.48;;;;;;;;;;5030160;28;20502;-77
2022/03/27 05:36:52;;;;;;;29.70;15.48;;;;;;;;;;5029852;28;20584;-78
2022/03/27 05:39:19;;;;;;;23.02;13.63;;;;;;;;;;5029648;28;20041;-76
2022/03/27 05:41:45;;;;;;;26.63;15.00;;;;;;;;;;5028347;28;20017;-76
2022/03/27 05:44:11;;;;;;;23.17;14.20;;;;;;;;;;5030176;28;20565;-77
2022/03/27 05:46:37;;;;;;;23.60;13.23;;;;;;;;;;5030216;28;20052;-76
2022/03/27 05:49:03;;;;;;;22.25;13.05;;;;;;;;;;5029689;28;20108;-77
2022/03/27 05:51:30;;;;;;;24.33;13.20;;;;;;;;;;5030159;28;20491;-77
2022/03/27 05:53:56;;;;;;;21.60;12.65;;;;;;;;;;5030741;28;20563;-77
2022/03/27 05:56:22;;;;;;;23.88;13.35;;;;;;;;;;5029645;28;20036;-77
2022/03/27 05:58:48;;;;;;;24.70;13.65;;;;;;;;;;5029945;28;20034;-77
2022/03/27 06:01:14;;;;;;;23.55;12.73;;;;;;;;;;5026990;28;20025;-77
2022/03/27 06:03:41;;;;;;;22.42;12.85;;;;;;;;;;5027958;28;20394;-76
2022/03/27 06:06:07;;;;;;;22.75;12.80;;;;;;;;;;5030545;28;20029;-76
2022/03/27 06:08:33;;;;;;;20.65;12.85;;;;;;;;;;5029531;28;20036;-77
2022/03/27 06:11:00;;;;;;;20.05;12.35;;;;;;;;;;5029932;28;20037;-77
2022/03/27 06:13:26;;;;;;;21.63;12.50;;;;;;;;;;5029603;28;20052;-78
2022/03/27 06:15:52;;;;;;;22.70;12.65;;;;;;;;;;5027387;28;20029;-78
2022/03/27 06:18:18;;;;;;;21.48;12.18;;;;;;;;;;5028357;28;20439;-78
2022/03/27 06:20:44;;;;;;;18.77;12.20;;;;;;;;;;5030496;28;20021;-78
2022/03/27 06:23:10;;;;;;;22.83;13.13;;;;;;;;;;5030762;28;20082;-78
2022/03/27 06:25:38;;;;;;;23.15;12.88;;;;;;;;;;5030074;28;20120;-78
2022/03/27 06:28:04;;;;;;;24.67;12.93;;;;;;;;;;5028865;28;20036;-77
2022/03/27 06:30:32;;;;;;;20.42;12.57;;;;;;;;;;5029311;28;20033;-76
2022/03/27 06:32:59;;;;;;;20.08;11.93;;;;;;;;;;5026404;28;20091;-76
2022/03/27 06:35:25;;;;;;;20.52;12.52;;;;;;;;;;5028010;28;20083;-78
2022/03/27 06:37:52;;;;;;;21.80;12.45;;;;;;;;;;5029918;28;20060;-78
2022/03/27 06:40:19;;;;;;;18.30;11.25;;;;;;;;;;5029280;28;20029;-78
2022/03/27 06:42:45;;;;;;;16.75;10.80;;;;;;;;;;5028866;28;20154;-77
2022/03/27 06:45:13;;;;;;;15.35;10.10;;;;;;;;;;5029954;28;20034;-76
2022/03/27 06:47:40;;;;;;;18.25;10.82;;;;;;;;;;5030061;28;20021;-74
2022/03/27 06:50:07;;;;;;;18.08;10.27;;;;;;;;;;5022119;28;20049;-76
2022/03/27 06:52:34;;;;;;;16.50;10.68;;;;;;;;;;5031415;28;20494;-76
2022/03/27 06:55:00;;;;;;;19.83;11.20;;;;;;;;;;5025619;28;20037;-75
2022/03/27 06:57:26;;;;;;;17.25;10.48;;;;;;;;;;5028985;28;20029;-75
2022/03/27 07:05:22;;;;;;;15.52;10.27;;;;;;;;;;5028762;28;20051;-76
2022/03/27 07:07:49;;;;;;;16.60;10.90;;;;;;;;;;5029669;28;20033;-75
2022/03/27 07:10:15;;;;;;;15.25;9.98;;;;;;;;;;5028960;28;20121;-75
2022/03/27 07:12:42;;;;;;;15.60;10.32;;;;;;;;;;5027629;28;20034;-75
2022/03/27 07:15:09;;;;;;;16.17;10.00;;;;;;;;;;5025207;28;20040;-76
2022/03/27 07:17:43;;;;;;;12.88;8.98;;;;;;;;;;5026551;28;20466;-76
2022/03/27 07:20:10;;;;;;;12.82;8.85;;;;;;;;;;5019088;28;20084;-76
2022/03/27 07:22:36;;;;;;;13.55;9.30;;;;;;;;;;5027966;28;20025;-76
2022/03/27 07:25:03;;;;;;;13.55;8.98;;;;;;;;;;5025500;28;20041;-76
2022/03/27 07:27:31;;;;;;;13.35;9.63;;;;;;;;;;5027597;28;20032;-76
2022/03/27 07:29:57;;;;;;;13.05;8.73;;;;;;;;;;5026574;28;20048;-76
2022/03/27 07:32:23;;;;;;;14.68;9.45;;;;;;;;;;5025429;28;20034;-75
2022/03/27 07:34:49;;;;;;;14.27;9.77;;;;;;;;;;5027173;28;20042;-75
2022/03/27 07:37:15;;;;;;;16.80;9.30;;;;;;;;;;5026863;28;20029;-76
2022/03/27 07:39:41;;;;;;;13.50;9.05;;;;;;;;;;5028333;28;20132;-76
2022/03/27 07:42:07;;;;;;;13.40;8.80;;;;;;;;;;5027323;28;20037;-75
2022/03/27 07:44:34;;;;;;;14.13;8.88;;;;;;;;;;5026182;28;20048;-76
2022/03/27 07:47:00;;;;;;;13.13;8.48;;;;;;;;;;5022587;28;20479;-77
2022/03/27 07:49:26;;;;;;;14.80;8.38;;;;;;;;;;5026660;28;20037;-76
2022/03/27 07:51:54;;;;;;;13.70;8.52;;;;;;;;;;5023188;28;20033;-77
2022/03/27 07:54:20;;;;;;;11.50;7.60;;;;;;;;;;5026368;28;20075;-77
2022/03/27 07:56:46;;;;;;;12.55;8.23;;;;;;;;;;5027018;28;20095;-77
2022/03/27 07:59:12;;;;;;;12.13;7.88;;;;;;;;;;5024679;28;20026;-77
2022/03/27 08:01:38;;;;;;;11.20;7.78;;;;;;;;;;5026185;28;20053;-77
2022/03/27 08:04:05;;;;;;;12.50;8.38;;;;;;;;;;5026222;28;20038;-76
2022/03/27 08:06:36;;;;;;;11.40;8.20;;;;;;;;;;5026480;28;20026;-78
2022/03/27 08:09:03;;;;;;;11.48;7.60;;;;;;;;;;5025506;28;20037;-78
2022/03/27 08:11:29;;;;;;;12.18;7.90;;;;;;;;;;5026939;28;20041;-78
2022/03/27 08:13:55;;;;;;;11.93;7.25;;;;;;;;;;5020507;28;20494;-76
2022/03/27 08:16:21;;;;;;;10.07;6.93;;;;;;;;;;5027139;28;20036;-78
2022/03/27 08:18:47;;;;;;;10.85;7.28;;;;;;;;;;5025224;28;20067;-77
2022/03/27 08:21:13;;;;;;;11.48;7.40;;;;;;;;;;5027199;28;20030;-77
2022/03/27 08:23:39;;;;;;;9.48;6.88;;;;;;;;;;5026234;28;20036;-77
2022/03/27 08:28:50;;;;;;;12.18;7.03;;;;;;;;;;5029296;28;20576;-78
2022/03/27 08:31:16;;;;;;;10.60;7.15;;;;;;;;;;5031530;28;20096;-78
2022/03/27 08:33:44;;;;;;;9.68;6.28;;;;;;;;;;5031607;28;20124;-78
2022/03/27 08:36:10;;;;;;;12.73;7.18;;;;;;;;;;5031191;28;20108;-77
2022/03/27 08:38:37;;;;;;;9.25;6.55;;;;;;;;;;5028946;28;20055;-77
2022/03/27 08:41:04;;;;;;;8.82;6.10;;;;;;;;;;5028745;28;20025;-77
2022/03/27 08:43:32;;;;;;;11.63;6.72;;;;;;;;;;5031522;28;20029;-79
2022/03/27 08:45:59;;;;;;;9.30;6.13;;;;;;;;;;5034245;28;20079;-76
2022/03/27 08:48:25;;;;;;;8.02;6.18;;;;;;;;;;5030472;28;20071;-76
2022/03/27 08:50:58;;;;;;;9.07;6.47;;;;;;;;;;5030234;28;20075;-76
2022/03/27 08:53:31;;;;;;;9.73;6.70;;;;;;;;;;5031117;28;20033;-76
2022/03/27 08:55:59;;;;;;;7.38;5.93;;;;;;;;;;5030964;28;20026;-75
2022/03/27 08:58:32;;;;;;;9.70;6.00;;;;;;;;;;5027036;28;20117;-74
2022/03/27 09:00:58;;;;;;;8.40;5.97;;;;;;;;;;5030919;28;20083;-77
2022/03/27 09:03:24;;;;;;;8.27;5.63;;;;;;;;;;5029644;28;20528;-76
2022/03/27 09:05:51;;;;;;;8.57;5.88;;;;;;;;;;5027178;28;20034;-75
2022/03/27 09:08:17;;;;;;;10.43;5.60;;;;;;;;;;5010791;28;20124;-75
2022/03/27 09:10:45;;;;;;;7.82;5.75;;;;;;;;;;5030429;28;20447;-76
2022/03/27 09:13:16;;;;;;;16.48;6.60;;;;;;;;;;5026537;28;20056;-76
2022/03/27 09:15:43;;;;;;;;;;;;;;;;;;5027693;28;20042;-77
2022/03/27 09:18:13;;;;;;;9.50;5.82;;;;;;;;;;5029428;28;19921;-76
2022/03/27 09:20:43;;;;;;;11.57;6.15;;;;;;;;;;5024826;28;20033;-77
2022/03/27 09:23:24;;;;;;;9.02;6.22;;;;;;;;;;5024952;28;20112;-76
2022/03/27 09:25:50;;;;;;;9.20;4.72;;;;;;;;;;5029299;28;20100;-76
2022/03/27 09:28:24;;;;;;;7.20;4.45;;;;;;;;;;5028936;28;20029;-77
2022/03/27 09:30:50;;;;;;;8.07;4.75;;;;;;;;;;5025945;28;20237;-76
2022/03/27 09:33:49;;;;;;;7.35;5.05;;;;;;;;;;5029911;28;20047;-76
2022/03/27 09:36:15;;;;;;;7.00;4.70;;;;;;;;;;5026567;28;20430;-77
2022/03/27 09:38:41;;;;;;;10.43;4.43;;;;;;;;;;5027477;28;20128;-78
2022/03/27 09:41:07;;;;;;;8.63;3.78;;;;;;;;;;5030491;28;20434;-77
2022/03/27 09:43:34;;;;;;;7.05;4.30;;;;;;;;;;5032134;28;20495;-75
2022/03/27 09:46:01;;;;;;;11.10;4.53;;;;;;;;;;5030892;28;20033;-75
2022/03/27 09:48:28;;;;;;;16.90;4.35;;;;;;;;;;5030767;28;20447;-76
2022/03/27 09:50:55;;;;;;;9.43;4.90;;;;;;;;;;5031901;28;20134;-76
2022/03/27 09:53:21;;;;;;;11.63;4.93;;;;;;;;;;5031256;28;20034;-76
2022/03/27 09:55:52;;;;;;;7.93;5.07;;;;;;;;;;5031688;28;20040;-75
2022/03/27 09:58:32;;;;;;;10.77;5.57;;;;;;;;;;5031579;28;20037;-77
2022/03/27 10:01:18;;;;;;;10.52;5.38;;;;;;;;;;5030797;28;20024;-76
2022/03/27 10:04:00;;;;;;;10.35;4.68;;;;;;;;;;5029833;28;20032;-77
2022/03/27 10:06:26;;;;;;;9.60;5.45;;;;;;;;;;5012125;28;20033;-76
2022/03/27 10:08:52;;;;;;;11.02;5.40;;;;;;;;;;5011546;28;20041;-74
2022/03/27 10:11:21;;;;;;;9.55;5.03;;;;;;;;;;5024011;28;20041;-76
2022/03/27 10:13:47;;;;;;;12.57;6.10;;;;;;;;;;5031494;28;20516;-76
2022/03/27 10:16:16;;;;;;;10.13;5.28;;;;;;;;;;5029145;28;20041;-75
2022/03/27 10:18:43;;;;;;;11.15;5.63;;;;;;;;;;5030132;28;20036;-77
2022/03/27 10:21:10;;;;;;;9.23;5.28;;;;;;;;;;5030115;28;20087;-76
2022/03/27 10:23:37;;;;;;;11.20;5.50;;;;;;;;;;5027434;28;20092;-77
2022/03/27 10:26:05;;;;;;;10.93;5.15;;;;;;;;;;5028753;28;20041;-78
2022/03/27 10:28:33;;;;;;;11.55;5.40;;;;;;;;;;5028911;28;20345;-77
2022/03/27 10:30:59;;;;;;;12.07;5.53;;;;;;;;;;5028949;28;20033;-75
2022/03/27 10:33:27;;;;;;;10.70;5.38;;;;;;;;;;5030024;28;20253;-76
2022/03/27 10:35:58;;;;;;;11.98;5.75;;;;;;;;;;5030410;28;20045;-75
2022/03/27 10:38:51;;;;;;;9.93;5.25;;;;;;;;;;5028791;28;20029;-75
2022/03/27 10:41:35;;;;;;;12.20;5.35;;;;;;;;;;5027631;28;20088;-79
2022/03/27 10:44:11;;;;;;;8.32;5.10;;;;;;;;;;5009401;28;20030;-76
2022/03/27 10:46:37;;;;;;;9.48;5.00;;;;;;;;;;5027821;28;20029;-78
2022/03/27 10:49:14;;;;;;;9.30;5.43;;;;;;;;;;5028425;28;20462;-76
2022/03/27 10:51:49;;;;;;;12.00;5.15;;;;;;;;;;5011806;28;20038;-76
2022/03/27 10:54:18;;;;;;;10.43;4.65;;;;;;;;;;5012181;28;20030;-76
2022/03/27 10:56:51;;;;;;;6.40;3.90;;;;;;;;;;5029658;28;20025;-77
2022/03/27 10:59:19;;;;;;;9.32;4.63;;;;;;;;;;5028975;28;20029;-76
2022/03/27 11:01:49;;;;;;;7.60;4.57;;;;;;;;;;5028124;28;20387;-78
2022/03/27 11:04:19;;;;;;;10.05;4.20;;;;;;;;;;5029428;28;20032;-77
2022/03/27 11:06:49;;;;;;;10.20;4.57;;;;;;;;;;5028437;28;20060;-77
2022/03/27 11:09:32;;;;;;;7.10;4.00;;;;;;;;;;5029630;28;20037;-76
2022/03/27 11:11:58;;;;;;;10.32;4.07;;;;;;;;;;5029610;28;20030;-77
2022/03/27 11:14:45;;;;;;;7.40;3.50;;;;;;;;;;5030043;28;20091;-77
2022/03/27 11:17:12;;;;;;;5.70;3.15;;;;;;;;;;5025159;28;20120;-76
2022/03/27 11:19:48;;;;;;;6.75;3.10;;;;;;;;;;5030449;28;20037;-76
2022/03/27 11:22:32;;;;;;;7.93;3.67;;;;;;;;;;5030493;28;20022;-77
2022/03/27 11:25:17;;;;;;;8.98;4.00;;;;;;;;;;5029603;28;20527;-77
2022/03/27 11:27:58;;;;;;;6.35;2.63;;;;;;;;;;5010583;28;20079;-77
2022/03/27 11:30:24;;;;;;;6.57;3.10;;;;;;;;;;5009391;28;20183;-78
2022/03/27 11:33:09;;;;;;;10.45;3.95;;;;;;;;;;5008827;28;20049;-76
2022/03/27 11:35:35;;;;;;;12.07;4.47;;;;;;;;;;5017194;28;20034;-76
2022/03/27 11:38:21;;;;;;;12.38;3.00;;;;;;;;;;5029497;28;20029;-78
2022/03/27 11:40:47;;;;;;;7.65;2.80;;;;;;;;;;5009163;28;20033;-77
2022/03/27 11:43:33;;;;;;;10.15;3.60;;;;;;;;;;5010118;28;20113;-78
2022/03/27 11:46:00;;;;;;;8.20;3.15;;;;;;;;;;5011245;28;20078;-77
2022/03/27 11:48:27;;;;;;;13.07;3.78;;;;;;;;;;5029046;28;20455;-76
2022/03/27 11:50:56;;;;;;;8.25;3.00;;;;;;;;;;5028259;28;20028;-76
2022/03/27 11:53:32;;;;;;;8.77;3.00;;;;;;;;;;5029665;28;20033;-77
2022/03/27 11:56:08;;;;;;;7.35;2.90;;;;;;;;;;5029227;28;20029;-76
2022/03/27 11:58:35;;;;;;;7.43;3.40;;;;;;;;;;5027029;28;20410;-75
2022/03/27 12:01:09;;;;;;;6.97;3.30;;;;;;;;;;5029240;28;20027;-75
2022/03/27 12:03:35;;;;;;;8.40;3.05;;;;;;;;;;5028777;28;20047;-75
2022/03/27 12:06:06;;;;;;;9.00;3.65;;;;;;;;;;5029484;28;20045;-77
2022/03/27 12:08:33;;;;;;;12.80;3.65;;;;;;;;;;5028849;28;20041;-76
2022/03/27 12:11:04;;;;;;;11.02;3.47;;;;;;;;;;5029517;28;20044;-76
2022/03/27 12:13:43;;;;;;;10.35;4.00;;;;;;;;;;5029884;28;20026;-79
2022/03/27 12:16:20;;;;;;;10.18;4.18;;;;;;;;;;5028281;28;20040;-77
2022/03/27 12:18:47;;;;;;;10.55;3.42;;;;;;;;;;5027299;28;20352;-77
2022/03/27 12:21:14;;;;;;;7.75;3.30;;;;;;;;;;5028163;28;20022;-78
2022/03/27 12:23:41;;;;;;;11.15;4.97;;;;;;;;;;5029066;28;20025;-74
2022/03/27 12:31:39;;;;;;;10.98;4.97;;;;;;;;;;5028904;28;20088;-76
2022/03/27 12:34:05;;;;;;;10.10;3.60;;;;;;;;;;5028390;28;20045;-77
2022/03/27 12:36:31;;;;;;;16.73;3.40;;;;;;;;;;5028511;28;20049;-76
2022/03/27 12:38:57;;;;;;;9.15;3.33;;;;;;;;;;5028315;28;20312;-76
2022/03/27 12:41:36;;;;;;;11.13;4.55;;;;;;;;;;5028354;28;20021;-76
2022/03/27 12:44:02;;;;;;;10.07;4.28;;;;;;;;;;5028316;28;20105;-77
2022/03/27 12:46:28;;;;;;;8.93;3.40;;;;;;;;;;5027504;28;20044;-77
2022/03/27 12:49:00;;;;;;;9.40;2.97;;;;;;;;;;5027318;28;20034;-75
2022/03/27 12:51:26;;;;;;;7.80;3.55;;;;;;;;;;5027524;28;20039;-74
2022/03/27 12:54:09;;;;;;;8.27;4.03;;;;;;;;;;5028459;28;20029;-75
2022/03/27 12:56:54;;;;;;;8.15;3.25;;;;;;;;;;5028456;28;20030;-76
2022/03/27 12:59:21;;;;;;;10.30;3.35;;;;;;;;;;5028646;28;20029;-78
2022/03/27 13:01:47;;;;;;;10.57;3.22;;;;;;;;;;5027579;28;20034;-76
2022/03/27 13:04:13;;;;;;;9.50;3.85;;;;;;;;;;5026866;28;20033;-75
2022/03/27 13:06:43;;;;;;;12.20;3.30;;;;;;;;;;5027875;28;20151;-75
2022/03/27 13:09:10;;;;;;;9.15;3.35;;;;;;;;;;5028098;28;20033;-78
2022/03/27 13:11:41;;;;;;;6.80;2.83;;;;;;;;;;5030596;28;20098;-76
2022/03/27 13:14:07;;;;;;;8.50;2.83;;;;;;;;;;5032080;28;20506;-76
2022/03/27 13:16:53;;;;;;;7.43;2.85;;;;;;;;;;5031199;28;20120;-77
2022/03/27 13:19:23;;;;;;;9.93;3.05;;;;;;;;;;5030512;28;20171;-76
2022/03/27 13:21:56;;;;;;;10.45;3.22;;;;;;;;;;5031221;28;20071;-76
2022/03/27 13:24:31;;;;;;;10.57;3.03;;;;;;;;;;5031295;28;20040;-77
2022/03/27 13:27:01;;;;;;;14.90;3.35;;;;;;;;;;5031706;28;20025;-76
2022/03/27 13:29:27;;;;;;;11.77;3.40;;;;;;;;;;5031457;28;20033;-77
2022/03/27 13:31:53;;;;;;;11.40;3.08;;;;;;;;;;5031718;28;20360;-77
2022/03/27 13:34:21;;;;;;;11.93;3.88;;;;;;;;;;5031158;28;20033;-76
2022/03/27 13:36:52;;;;;;;10.02;3.22;;;;;;;;;;5031072;28;20037;-76
2022/03/27 13:39:18;;;;;;;10.55;3.42;;;;;;;;;;5029130;28;20132;-76
2022/03/27 13:44:30;;;;;;;9.40;3.25;;;;;;;;;;5030949;28;20072;-77
2022/03/27 13:46:56;;;;;;;8.18;2.95;;;;;;;;;;5031815;28;20420;-77
2022/03/27 13:49:23;;;;;;;12.30;3.05;;;;;;;;;;5030418;28;20052;-78
2022/03/27 13:51:49;;;;;;;20.13;2.97;;;;;;;;;;5029733;28;20087;-75
2022/03/27 13:54:15;;;;;;;12.40;3.20;;;;;;;;;;5031981;28;20053;-77
2022/03/27 13:56:41;;;;;;;13.23;3.20;;;;;;;;;;5031304;28;20038;-76
2022/03/27 13:59:08;;;;;;;9.32;3.00;;;;;;;;;;5031171;28;20471;-77
2022/03/27 14:01:39;;;;;;;14.57;3.80;;;;;;;;;;5031702;28;20022;-76
2022/03/27 14:04:05;;;;;;;;;;;;;;;;;;5032253;28;20075;-77
2022/03/27 14:06:31;;;;;;;13.95;3.65;;;;;;;;;;5032173;28;19905;-75
2022/03/27 14:08:57;;;;;;;15.98;3.63;;;;;;;;;;5031612;28;20262;-78
2022/03/27 14:11:24;;;;;;;12.88;3.30;;;;;;;;;;5030545;28;20029;-76
2022/03/27 14:13:50;;;;;;;10.43;2.65;;;;;;;;;;5028478;28;20041;-77
2022/03/27 14:16:16;;;;;;;15.27;3.80;;;;;;;;;;5030063;28;20029;-76
2022/03/27 14:18:42;;;;;;;17.33;3.03;;;;;;;;;;5030009;28;20049;-74
2022/03/27 14:21:09;;;;;;;20.10;4.10;;;;;;;;;;5030399;28;20033;-78
2022/03/27 14:23:35;;;;;;;15.25;3.50;;;;;;;;;;5029551;28;20025;-77
2022/03/27 14:26:02;;;;;;;14.85;3.50;;;;;;;;;;5030075;28;20035;-77
2022/03/27 14:28:29;;;;;;;17.30;3.92;;;;;;;;;;5028560;28;20022;-76
2022/03/27 14:30:55;;;;;;;16.20;4.53;;;;;;;;;;5031510;28;20037;-77
2022/03/27 14:33:23;;;;;;;28.25;6.43;;;;;;;;;;5028510;28;20056;-76
2022/03/27 14:35:49;;;;;;;28.70;6.38;;;;;;;;;;5029924;28;20025;-77
2022/03/27 14:38:15;;;;;;;28.13;6.90;;;;;;;;;;5029053;28;20120;-76
2022/03/27 14:40:42;;;;;;;30.27;6.28;;;;;;;;;;5029375;28;20124;-76
2022/03/27 14:43:08;;;;;;;32.17;6.85;;;;;;;;;;5028241;28;20091;-76
2022/03/27 14:45:34;;;;;;;13.57;3.55;;;;;;;;;;5029897;28;20112;-78
2022/03/27 14:48:00;;;;;;;17.00;4.00;;;;;;;;;;5029354;28;20128;-77